Time;durP1;ratioP1;P1;durP2;ratioP2;P2;SDS_P1;SDS_P2;PMS_P1;PMS_P2;Temp;Humidity;BMP_temperature;BMP_pressure;BME280_temperature;BME280_humidity;BME280_pressure;Samples;Min_cycle;Max_cycle;Signal;HPM_P1;HPM_P2
2023/05/06 00:01:40;;;;;;;9.50;5.00;;;9.90;99.90;;;;;;5048692;28;20501;-52
2023/05/06 00:04:07;;;;;;;6.73;4.67;;;9.80;99.90;;;;;;5054622;28;20441;-52
2023/05/06 00:06:34;;;;;;;15.73;4.83;;;9.80;99.90;;;;;;5041846;28;20516;-52
2023/05/06 00:09:01;;;;;;;8.63;4.77;;;9.80;99.90;;;;;;5048931;28;20568;-52
2023/05/06 00:11:28;;;;;;;16.03;5.70;;;9.70;99.90;;;;;;5050605;28;20876;-51
2023/05/06 00:13:54;;;;;;;9.07;5.37;;;9.80;99.90;;;;;;5048832;28;20503;-53
2023/05/06 00:16:21;;;;;;;13.67;5.43;;;9.70;99.90;;;;;;5049736;28;20515;-52
2023/05/06 00:18:47;;;;;;;6.17;5.37;;;9.70;99.90;;;;;;5051602;28;20533;-52
2023/05/06 00:21:14;;;;;;;8.47;5.20;;;9.70;99.90;;;;;;5047768;28;20501;-50
2023/05/06 00:23:42;;;;;;;8.07;5.60;;;9.70;99.90;;;;;;5039265;28;20972;-50
2023/05/06 00:26:09;;;;;;;7.10;5.00;;;9.70;99.90;;;;;;5038728;28;20561;-53
2023/05/06 00:28:36;;;;;;;7.80;5.10;;;9.60;99.90;;;;;;5051746;28;20480;-52
2023/05/06 00:31:02;;;;;;;9.60;4.50;;;9.60;99.90;;;;;;5058086;28;20562;-52
2023/05/06 00:33:29;;;;;;;8.43;5.33;;;9.70;99.90;;;;;;5046130;28;20494;-52
2023/05/06 00:35:55;;;;;;;10.77;5.40;;;9.60;99.90;;;;;;5041014;28;20602;-52
2023/05/06 00:38:22;;;;;;;6.27;5.03;;;9.60;99.90;;;;;;5046433;28;21086;-51
2023/05/06 00:40:50;;;;;;;7.57;5.10;;;9.50;99.90;;;;;;5053267;28;20572;-52
2023/05/06 00:43:17;;;;;;;13.90;6.27;;;9.60;99.90;;;;;;5070149;28;20463;-52
2023/05/06 00:45:44;;;;;;;6.40;5.30;;;9.60;99.90;;;;;;5069005;28;20513;-51
2023/05/06 00:48:10;;;;;;;8.33;4.60;;;9.50;99.90;;;;;;5047492;28;20483;-51
2023/05/06 00:50:39;;;;;;;12.37;4.50;;;9.40;99.90;;;;;;5041552;28;20474;-52
2023/05/06 00:53:09;;;;;;;15.43;5.27;;;9.40;99.90;;;;;;5043885;28;20512;-51
2023/05/06 00:55:36;;;;;;;9.00;4.80;;;9.40;99.90;;;;;;5042811;28;20867;-51
2023/05/06 00:58:04;;;;;;;12.30;5.60;;;9.40;99.90;;;;;;5040777;28;20567;-51
2023/05/06 01:00:32;;;;;;;7.80;5.10;;;9.30;99.90;;;;;;5052147;28;20451;-50
2023/05/06 01:02:58;;;;;;;7.73;4.57;;;9.40;99.90;;;;;;5053376;28;20518;-51
2023/05/06 01:05:32;;;;;;;10.50;5.80;;;9.30;99.90;;;;;;5038617;28;20545;-51
2023/05/06 01:08:09;;;;;;;8.63;5.23;;;9.30;99.90;;;;;;5053001;28;20568;-51
2023/05/06 01:10:47;;;;;;;6.93;4.23;;;9.30;99.90;;;;;;5046624;28;20459;-51
2023/05/06 01:13:21;;;;;;;8.00;4.83;;;9.20;99.90;;;;;;5059288;28;20452;-51
2023/05/06 01:15:53;;;;;;;11.50;4.53;;;9.10;99.90;;;;;;5067563;28;20496;-51
2023/05/06 01:18:22;;;;;;;7.80;4.70;;;9.20;99.90;;;;;;5048832;28;20580;-51
2023/05/06 01:20:52;;;;;;;9.30;5.30;;;9.10;99.90;;;;;;5045432;28;20481;-51
2023/05/06 01:23:20;;;;;;;6.67;4.63;;;9.10;99.90;;;;;;5054622;28;20510;-51
2023/05/06 01:25:46;;;;;;;12.33;4.97;;;9.20;99.90;;;;;;5063004;28;20497;-51
2023/05/06 01:28:14;;;;;;;5.87;4.70;;;9.10;99.90;;;;;;5051565;28;20516;-51
2023/05/06 01:30:48;;;;;;;7.40;4.80;;;9.10;99.90;;;;;;5050403;28;20551;-51
2023/05/06 01:33:22;;;;;;;14.87;5.00;;;9.10;99.90;;;;;;5050828;28;20603;-51
2023/05/06 01:35:59;;;;;;;6.13;4.80;;;9.00;99.90;;;;;;5049268;28;20580;-51
2023/05/06 01:38:34;;;;;;;26.00;5.93;;;8.90;99.90;;;;;;5046381;28;20481;-51
2023/05/06 01:41:01;;;;;;;10.67;4.97;;;8.90;99.90;;;;;;5038126;28;20473;-51
2023/05/06 01:43:32;;;;;;;9.63;5.07;;;8.90;99.90;;;;;;5055420;28;20487;-50
2023/05/06 01:46:01;;;;;;;5.30;4.80;;;8.80;99.90;;;;;;5041885;28;20555;-51
2023/05/06 01:48:31;;;;;;;8.60;5.27;;;8.80;99.90;;;;;;5039037;28;20565;-51
2023/05/06 01:50:58;;;;;;;7.73;5.00;;;8.70;99.90;;;;;;5062069;28;20551;-51
2023/05/06 01:53:25;;;;;;;11.23;5.13;;;8.80;99.90;;;;;;5040155;28;20924;-51
2023/05/06 01:55:52;;;;;;;12.50;5.40;;;8.70;99.90;;;;;;5054098;28;21073;-50
2023/05/06 01:58:19;;;;;;;12.50;5.73;;;8.70;99.90;;;;;;5051170;28;20579;-50
2023/05/06 02:00:45;;;;;;;12.57;4.67;;;8.50;99.90;;;;;;5048182;28;20553;-51
2023/05/06 02:03:12;;;;;;;5.57;4.97;;;8.50;99.90;;;;;;5052785;28;20562;-50
2023/05/06 02:05:38;;;;;;;9.97;5.30;;;8.50;99.90;;;;;;5062760;28;20544;-51
2023/05/06 02:08:05;;;;;;;6.93;5.03;;;8.60;99.90;;;;;;5047086;28;20579;-51
2023/05/06 02:10:31;;;;;;;12.80;6.03;;;8.60;99.90;;;;;;5063541;28;20539;-50
2023/05/06 02:13:00;;;;;;;13.63;5.87;;;8.50;99.90;;;;;;5063590;28;20551;-51
2023/05/06 02:15:26;;;;;;;5.13;4.53;;;8.40;99.90;;;;;;5060057;28;20529;-50
2023/05/06 02:17:53;;;;;;;11.17;5.10;;;8.50;99.90;;;;;;5054047;28;20547;-52
2023/05/06 02:20:20;;;;;;;5.40;4.90;;;8.30;99.90;;;;;;5060619;28;20482;-52
2023/05/06 02:22:46;;;;;;;10.80;4.93;;;8.30;99.90;;;;;;5064210;28;20540;-51
2023/05/06 02:25:13;;;;;;;9.10;5.27;;;8.30;99.90;;;;;;5062917;28;20884;-51
2023/05/06 02:27:39;;;;;;;8.43;4.47;;;8.40;99.90;;;;;;5054954;28;20488;-51
2023/05/06 02:30:08;;;;;;;5.40;4.90;;;8.30;99.90;;;;;;5072741;28;20522;-51
2023/05/06 02:32:34;;;;;;;7.80;4.77;;;8.30;99.90;;;;;;5051021;28;20462;-51
2023/05/06 02:35:01;;;;;;;8.30;4.60;;;8.30;99.90;;;;;;5052130;28;20997;-51
2023/05/06 02:37:28;;;;;;;10.27;5.00;;;8.30;99.90;;;;;;5048212;28;20537;-50
2023/05/06 02:39:54;;;;;;;7.90;4.57;;;8.20;99.90;;;;;;5058699;28;20520;-51
2023/05/06 02:42:21;;;;;;;10.47;5.10;;;8.20;99.90;;;;;;5043062;28;20689;-51
2023/05/06 02:44:48;;;;;;;12.50;5.90;;;8.00;99.90;;;;;;5048612;28;20547;-50
2023/05/06 02:47:16;;;;;;;6.13;3.80;;;8.00;99.90;;;;;;5045751;28;20509;-52
2023/05/06 02:49:42;;;;;;;7.50;4.40;;;8.00;99.90;;;;;;5045863;28;20553;-53
2023/05/06 02:52:09;;;;;;;15.20;5.07;;;8.00;99.90;;;;;;5064259;28;20551;-52
2023/05/06 02:54:35;;;;;;;6.13;5.00;;;8.00;99.90;;;;;;5051804;28;20461;-53
2023/05/06 02:57:02;;;;;;;10.50;4.30;;;7.90;99.90;;;;;;5060685;28;20567;-53
2023/05/06 02:59:28;;;;;;;6.67;5.57;;;7.90;99.90;;;;;;5042846;28;20500;-53
2023/05/06 03:01:55;;;;;;;8.27;5.20;;;7.90;99.90;;;;;;5048761;28;20477;-52
2023/05/06 03:04:23;;;;;;;6.70;4.67;;;8.00;99.90;;;;;;5047687;28;20462;-52
2023/05/06 03:06:49;;;;;;;6.30;5.13;;;8.00;99.90;;;;;;5052573;28;20611;-52
2023/05/06 03:09:16;;;;;;;6.77;4.70;;;8.00;99.90;;;;;;5061789;28;20500;-54
2023/05/06 03:11:42;;;;;;;11.53;5.73;;;7.90;99.90;;;;;;5042765;28;20542;-51
2023/05/06 03:14:09;;;;;;;5.60;5.00;;;8.00;99.90;;;;;;5041645;28;20472;-51
2023/05/06 03:16:36;;;;;;;6.60;4.83;;;7.90;99.90;;;;;;5042842;28;20520;-52
2023/05/06 03:19:03;;;;;;;9.60;4.47;;;7.90;99.90;;;;;;5045038;28;20491;-53
2023/05/06 03:21:31;;;;;;;11.00;5.27;;;7.70;99.90;;;;;;5041463;28;20547;-52
2023/05/06 03:23:57;;;;;;;9.30;4.83;;;7.80;99.90;;;;;;5045813;28;20461;-52
2023/05/06 03:26:24;;;;;;;8.43;6.07;;;7.80;99.90;;;;;;5043238;28;20550;-53
2023/05/06 03:28:51;;;;;;;6.03;5.23;;;7.80;99.90;;;;;;5046609;28;20482;-53
2023/05/06 03:31:17;;;;;;;6.50;4.20;;;7.80;99.90;;;;;;5073438;22;20583;-50
2023/05/06 03:33:44;;;;;;;5.73;4.53;;;7.90;99.90;;;;;;5070112;28;20542;-49
2023/05/06 03:36:11;;;;;;;5.43;4.93;;;7.80;99.90;;;;;;5070747;28;21224;-50
2023/05/06 03:38:39;;;;;;;7.07;4.70;;;7.70;99.90;;;;;;5070311;28;20463;-50
2023/05/06 03:41:06;;;;;;;5.80;4.57;;;7.70;99.90;;;;;;5049478;28;20512;-50
2023/05/06 03:43:32;;;;;;;8.30;5.03;;;7.70;99.90;;;;;;5050410;28;20584;-50
2023/05/06 03:45:59;;;;;;;7.70;4.90;;;7.50;99.90;;;;;;5052031;28;20530;-50
2023/05/06 03:48:25;;;;;;;9.20;5.23;;;7.70;99.90;;;;;;5050915;28;20548;-49
2023/05/06 03:50:52;;;;;;;10.57;6.43;;;7.70;99.90;;;;;;5055413;28;20566;-49
2023/05/06 03:53:18;;;;;;;7.60;4.70;;;7.80;99.90;;;;;;5056162;28;20543;-49
2023/05/06 03:55:46;;;;;;;9.00;4.83;;;7.70;99.90;;;;;;5054435;28;20571;-49
2023/05/06 03:58:13;;;;;;;6.97;4.73;;;7.60;99.90;;;;;;5051048;28;20551;-50
2023/05/06 04:00:39;;;;;;;9.50;4.47;;;7.70;99.90;;;;;;5053583;28;20556;-49
2023/05/06 04:03:06;;;;;;;5.13;4.63;;;7.70;99.90;;;;;;5043317;28;20461;-49
2023/05/06 04:05:32;;;;;;;8.57;4.77;;;7.70;99.90;;;;;;5052087;28;20455;-50
2023/05/06 04:07:59;;;;;;;6.27;4.83;;;7.60;99.90;;;;;;5052155;28;21036;-50
2023/05/06 04:10:25;;;;;;;8.83;4.70;;;7.70;99.90;;;;;;5050952;28;20595;-49
2023/05/06 04:12:53;;;;;;;9.33;6.20;;;7.70;99.90;;;;;;5049189;28;21026;-50
2023/05/06 04:15:20;;;;;;;7.13;5.00;;;7.60;99.90;;;;;;5048333;28;20566;-51
2023/05/06 04:17:47;;;;;;;12.40;5.83;;;7.70;99.90;;;;;;5056059;28;20556;-49
2023/05/06 04:20:14;;;;;;;7.47;5.20;;;7.70;99.90;;;;;;5049206;28;20490;-49
2023/05/06 04:22:41;;;;;;;5.60;5.00;;;7.70;99.90;;;;;;5046781;28;20461;-50
2023/05/06 04:25:09;;;;;;;5.70;5.20;;;7.70;99.90;;;;;;5049626;28;20535;-50
2023/05/06 04:27:36;;;;;;;16.33;5.50;;;7.70;99.90;;;;;;5050644;28;20450;-50
2023/05/06 04:30:04;;;;;;;7.60;5.87;;;7.70;99.90;;;;;;5047251;28;20568;-50
2023/05/06 04:32:30;;;;;;;6.40;5.00;;;7.70;99.90;;;;;;5046857;28;20551;-50
2023/05/06 04:34:57;;;;;;;8.03;5.30;;;7.70;99.90;;;;;;5044147;28;21020;-50
2023/05/06 04:37:23;;;;;;;12.13;5.57;;;7.70;99.90;;;;;;5049702;28;20543;-50
2023/05/06 04:39:50;;;;;;;6.90;5.17;;;7.80;99.90;;;;;;5048611;28;20560;-50
2023/05/06 04:42:16;;;;;;;7.50;5.20;;;7.80;99.90;;;;;;5051838;28;20980;-50
2023/05/06 04:44:43;;;;;;;5.97;4.60;;;7.70;99.90;;;;;;5051496;28;20547;-49
2023/05/06 04:47:11;;;;;;;8.93;5.17;;;7.80;99.90;;;;;;5051479;28;20534;-49
2023/05/06 04:49:38;;;;;;;7.17;5.10;;;7.70;99.90;;;;;;5053566;28;20467;-50
2023/05/06 04:52:05;;;;;;;7.73;6.47;;;7.70;99.90;;;;;;5053194;28;20491;-50
2023/05/06 04:54:31;;;;;;;6.07;5.23;;;7.70;99.90;;;;;;5052677;28;20461;-50
2023/05/06 04:56:58;;;;;;;6.87;5.53;;;7.70;99.90;;;;;;5047373;28;20586;-50
2023/05/06 04:59:24;;;;;;;6.47;4.90;;;7.70;99.90;;;;;;5049346;28;20547;-49
2023/05/06 05:01:51;;;;;;;6.00;5.20;;;7.70;99.90;;;;;;5050687;28;20546;-50
2023/05/06 05:04:19;;;;;;;8.50;5.33;;;7.70;99.90;;;;;;5059966;28;20536;-50
2023/05/06 05:06:45;;;;;;;8.70;5.03;;;7.60;99.90;;;;;;5054082;28;20548;-51
2023/05/06 05:09:12;;;;;;;6.73;5.77;;;7.60;99.90;;;;;;5051319;28;21038;-50
2023/05/06 05:11:38;;;;;;;7.40;5.63;;;7.60;99.90;;;;;;5054350;28;20546;-50
2023/05/06 05:14:05;;;;;;;11.47;5.50;;;7.70;99.90;;;;;;5052604;28;20471;-51
2023/05/06 05:16:32;;;;;;;6.63;5.30;;;7.70;99.90;;;;;;5051294;28;20482;-50
2023/05/06 05:18:59;;;;;;;6.67;5.50;;;7.70;99.90;;;;;;5053992;28;20555;-51
2023/05/06 05:21:27;;;;;;;6.40;4.67;;;7.70;99.90;;;;;;5058629;28;20485;-50
2023/05/06 05:23:54;;;;;;;10.27;5.57;;;7.70;99.90;;;;;;5053513;28;20469;-55
2023/05/06 05:26:20;;;;;;;11.77;5.67;;;7.70;99.90;;;;;;5057128;28;20500;-55
2023/05/06 05:28:47;;;;;;;7.03;5.63;;;7.70;99.90;;;;;;5056932;28;21039;-55
2023/05/06 05:31:13;;;;;;;12.87;5.87;;;7.70;99.90;;;;;;5058898;28;20502;-58
2023/05/06 05:33:40;;;;;;;8.43;4.30;;;7.70;99.90;;;;;;5062478;28;21046;-55
2023/05/06 05:36:07;;;;;;;5.77;5.00;;;7.70;99.90;;;;;;5050975;28;20493;-55
2023/05/06 05:38:34;;;;;;;6.53;5.13;;;7.70;99.90;;;;;;5051584;28;20962;-55
2023/05/06 05:41:01;;;;;;;6.40;5.20;;;7.80;99.90;;;;;;5047655;28;20612;-56
2023/05/06 05:43:27;;;;;;;6.07;5.30;;;7.80;99.90;;;;;;5053276;28;20590;-56
2023/05/06 05:45:54;;;;;;;6.97;5.87;;;7.70;99.90;;;;;;5054315;28;20919;-56
2023/05/06 05:48:20;;;;;;;8.30;5.17;;;7.70;99.90;;;;;;5059575;28;21232;-55
2023/05/06 05:50:47;;;;;;;5.97;5.23;;;7.60;99.90;;;;;;5056150;28;20587;-55
2023/05/06 05:53:13;;;;;;;5.90;5.30;;;7.60;99.90;;;;;;5054986;28;20553;-55
2023/05/06 05:55:41;;;;;;;5.87;5.20;;;7.70;99.90;;;;;;5050279;28;20517;-55
2023/05/06 05:58:09;;;;;;;5.60;5.10;;;7.70;99.90;;;;;;5047976;28;20558;-55
2023/05/06 06:00:36;;;;;;;6.90;5.10;;;7.70;99.90;;;;;;5050894;28;20561;-55
2023/05/06 06:03:02;;;;;;;5.47;4.97;;;7.70;99.90;;;;;;5048506;28;20888;-55
2023/05/06 06:05:29;;;;;;;9.40;5.47;;;7.70;99.90;;;;;;5051400;28;20460;-55
2023/05/06 06:07:55;;;;;;;8.27;6.00;;;7.70;99.90;;;;;;5046922;28;20467;-55
2023/05/06 06:10:22;;;;;;;7.93;5.30;;;7.70;99.90;;;;;;5050068;28;20575;-55
2023/05/06 06:12:50;;;;;;;9.03;5.60;;;7.70;99.90;;;;;;5051494;28;20563;-55
2023/05/06 06:15:16;;;;;;;7.07;5.90;;;7.70;99.90;;;;;;5050777;28;20542;-55
2023/05/06 06:17:43;;;;;;;13.50;5.13;;;7.70;99.90;;;;;;5052397;28;20511;-55
2023/05/06 06:20:12;;;;;;;5.83;4.90;;;7.70;99.90;;;;;;5045755;28;20565;-56
2023/05/06 06:22:39;;;;;;;5.93;5.33;;;7.80;99.90;;;;;;5041022;28;20490;-56
2023/05/06 06:25:07;;;;;;;8.17;5.70;;;7.80;99.90;;;;;;5047046;28;20822;-55
2023/05/06 06:27:35;;;;;;;7.50;5.37;;;7.80;99.90;;;;;;5044342;28;20971;-55
2023/05/06 06:30:03;;;;;;;11.33;5.90;;;7.80;99.90;;;;;;5050234;28;20492;-56
2023/05/06 06:32:30;;;;;;;8.77;5.60;;;7.80;99.90;;;;;;5052905;28;20475;-55
2023/05/06 06:34:56;;;;;;;8.33;6.27;;;7.80;99.90;;;;;;5051411;28;21030;-56
2023/05/06 06:37:23;;;;;;;10.13;6.30;;;7.80;99.90;;;;;;5057045;28;20485;-55
2023/05/06 06:39:49;;;;;;;7.70;5.50;;;7.90;99.90;;;;;;5051557;28;20552;-56
2023/05/06 06:42:16;;;;;;;7.77;5.43;;;7.90;99.90;;;;;;5051765;28;20587;-55
2023/05/06 06:44:42;;;;;;;6.30;5.60;;;7.90;99.90;;;;;;5055608;28;20554;-55
2023/05/06 06:47:10;;;;;;;9.20;6.10;;;8.00;99.90;;;;;;5051655;28;20456;-56
2023/05/06 06:49:38;;;;;;;8.20;5.50;;;7.90;99.90;;;;;;5051021;28;20910;-55
2023/05/06 06:52:05;;;;;;;7.80;6.27;;;7.90;99.90;;;;;;5055648;28;20808;-55
2023/05/06 06:54:31;;;;;;;9.37;5.90;;;7.90;99.90;;;;;;5049220;28;20472;-55
2023/05/06 06:56:58;;;;;;;8.47;5.70;;;7.90;99.90;;;;;;5057526;28;20854;-56
2023/05/06 06:59:24;;;;;;;9.00;5.10;;;7.90;99.90;;;;;;5048859;28;21190;-55
2023/05/06 07:01:51;;;;;;;8.83;6.30;;;7.80;99.90;;;;;;5048507;28;20571;-55
2023/05/06 07:04:19;;;;;;;12.13;5.53;;;7.90;99.90;;;;;;5055060;28;20904;-56
2023/05/06 07:06:46;;;;;;;8.17;5.87;;;7.90;99.90;;;;;;5047582;28;20463;-56
2023/05/06 07:09:12;;;;;;;8.50;6.40;;;7.90;99.90;;;;;;5051102;28;20842;-55
2023/05/06 07:11:39;;;;;;;8.47;6.57;;;8.00;99.90;;;;;;5050031;28;20509;-55
2023/05/06 07:14:05;;;;;;;9.30;5.83;;;8.00;99.90;;;;;;5051314;28;20585;-55
2023/05/06 07:16:32;;;;;;;10.17;6.27;;;7.90;99.90;;;;;;5050673;28;20480;-55
2023/05/06 07:18:58;;;;;;;10.90;6.37;;;7.90;99.90;;;;;;5050412;28;20547;-55
2023/05/06 07:21:26;;;;;;;8.03;6.43;;;8.00;99.90;;;;;;5047542;28;20497;-55
2023/05/06 07:23:53;;;;;;;8.40;5.60;;;8.00;99.90;;;;;;5056461;28;20888;-55
2023/05/06 07:26:20;;;;;;;6.90;6.20;;;8.00;99.90;;;;;;5051078;28;20541;-56
2023/05/06 07:28:47;;;;;;;15.40;6.60;;;8.00;99.90;;;;;;5051716;28;20456;-55
2023/05/06 07:31:14;;;;;;;6.80;6.10;;;7.90;99.90;;;;;;5055414;28;20937;-55
2023/05/06 07:33:41;;;;;;;7.87;5.97;;;8.00;99.90;;;;;;5048898;28;20958;-55
2023/05/06 07:36:08;;;;;;;7.83;6.40;;;8.00;99.90;;;;;;5050756;28;20539;-55
2023/05/06 07:38:36;;;;;;;7.17;6.47;;;8.00;99.90;;;;;;5048785;28;20572;-56
2023/05/06 07:41:02;;;;;;;9.90;5.80;;;8.00;99.90;;;;;;5052869;28;20537;-56
2023/05/06 07:43:29;;;;;;;9.23;5.70;;;8.00;99.90;;;;;;5047414;28;20502;-55
2023/05/06 07:46:01;;;;;;;7.83;6.30;;;8.10;99.90;;;;;;5049580;28;21212;-54
2023/05/06 07:48:27;;;;;;;7.73;5.63;;;8.20;99.90;;;;;;5049505;28;20462;-55
2023/05/06 07:50:54;;;;;;;6.53;5.93;;;8.20;99.90;;;;;;5046978;28;20485;-55
2023/05/06 07:53:21;;;;;;;7.23;6.27;;;8.20;99.90;;;;;;5050724;28;20990;-55
2023/05/06 07:55:49;;;;;;;6.30;5.70;;;8.20;99.90;;;;;;5047939;28;20559;-55
2023/05/06 07:58:15;;;;;;;8.77;6.53;;;8.20;99.90;;;;;;5043039;28;20539;-56
2023/05/06 08:00:42;;;;;;;8.07;6.40;;;8.30;99.90;;;;;;5042323;28;20488;-55
2023/05/06 08:03:08;;;;;;;6.80;6.20;;;8.20;99.90;;;;;;5049893;28;20523;-56
2023/05/06 08:05:35;;;;;;;6.93;6.27;;;8.20;99.90;;;;;;5044182;28;20562;-55
2023/05/06 08:08:02;;;;;;;12.00;6.83;;;8.20;99.90;;;;;;5040218;28;20548;-56
2023/05/06 08:10:28;;;;;;;6.87;6.13;;;8.20;99.90;;;;;;5045436;28;20565;-55
2023/05/06 08:12:56;;;;;;;10.50;7.37;;;8.10;99.90;;;;;;5043158;28;20493;-56
2023/05/06 08:15:23;;;;;;;8.80;6.83;;;8.30;99.90;;;;;;5047669;28;20534;-55
2023/05/06 08:17:49;;;;;;;6.53;5.80;;;8.30;99.90;;;;;;5051713;28;20500;-56
2023/05/06 08:20:16;;;;;;;13.20;11.10;;;8.30;99.90;;;;;;5047844;28;20501;-55
2023/05/06 08:22:42;;;;;;;8.47;7.67;;;8.30;99.90;;;;;;5050243;28;20547;-55
2023/05/06 08:25:09;;;;;;;10.77;6.53;;;8.30;99.90;;;;;;5046111;28;20590;-56
2023/05/06 08:27:36;;;;;;;8.27;6.90;;;8.30;99.90;;;;;;5048228;28;20463;-55
2023/05/06 08:30:05;;;;;;;6.43;5.80;;;8.40;99.90;;;;;;5051806;28;20517;-54
2023/05/06 08:32:31;;;;;;;12.40;6.60;;;8.40;99.90;;;;;;5052043;28;20834;-55
2023/05/06 08:34:59;;;;;;;6.20;5.67;;;8.30;99.90;;;;;;5051538;28;20547;-54
2023/05/06 08:37:26;;;;;;;7.87;7.10;;;8.40;99.90;;;;;;5046421;28;20488;-54
2023/05/06 08:39:52;;;;;;;7.27;5.80;;;8.40;99.90;;;;;;5047314;28;20547;-50
2023/05/06 08:42:19;;;;;;;10.73;6.90;;;8.30;99.90;;;;;;5049244;28;20557;-49
2023/05/06 08:44:45;;;;;;;10.73;6.60;;;8.30;99.90;;;;;;5048589;28;20489;-50
2023/05/06 08:47:13;;;;;;;6.60;6.00;;;8.30;99.90;;;;;;5052253;28;20534;-49
2023/05/06 08:49:40;;;;;;;7.53;6.83;;;8.30;99.90;;;;;;5055067;28;20437;-51
2023/05/06 08:52:08;;;;;;;12.03;6.53;;;8.30;99.90;;;;;;5050741;28;20515;-52
2023/05/06 08:54:35;;;;;;;8.23;7.43;;;8.20;99.90;;;;;;5050872;28;20483;-51
2023/05/06 08:57:04;;;;;;;7.43;6.67;;;8.20;99.90;;;;;;5051330;28;20484;-51
2023/05/06 08:59:32;;;;;;;11.43;7.10;;;8.30;99.90;;;;;;5050774;28;20464;-52
2023/05/06 09:02:00;;;;;;;8.13;7.30;;;8.30;99.90;;;;;;5045585;28;20485;-52
2023/05/06 09:04:27;;;;;;;6.83;6.30;;;8.30;99.90;;;;;;5048901;28;20580;-52
2023/05/06 09:06:54;;;;;;;8.80;7.90;;;8.40;99.90;;;;;;5052591;28;20555;-50
2023/05/06 09:09:20;;;;;;;15.77;8.03;;;8.40;99.90;;;;;;5047565;28;20557;-51
2023/05/06 09:11:52;;;;;;;10.57;8.20;;;8.40;99.90;;;;;;5049684;28;20489;-51
2023/05/06 09:14:21;;;;;;;10.97;8.30;;;8.40;99.90;;;;;;5047925;28;20475;-53
2023/05/06 09:16:49;;;;;;;9.17;8.30;;;8.50;99.90;;;;;;5044312;28;21058;-51
2023/05/06 09:19:16;;;;;;;12.33;10.20;;;8.50;99.90;;;;;;5051452;28;20540;-52
2023/05/06 09:21:46;;;;;;;12.40;8.93;;;8.50;99.90;;;;;;5049242;28;20580;-52
2023/05/06 09:24:15;;;;;;;10.10;8.83;;;8.40;99.90;;;;;;5050577;28;20540;-52
2023/05/06 09:26:43;;;;;;;12.80;11.53;;;8.50;99.90;;;;;;5046612;28;20460;-55
2023/05/06 09:29:10;;;;;;;7.33;6.60;;;8.40;99.90;;;;;;5049654;28;20530;-52
2023/05/06 09:31:41;;;;;;;8.57;6.53;;;8.40;99.90;;;;;;5049765;28;20564;-52
2023/05/06 09:34:07;;;;;;;7.17;6.47;;;8.40;99.90;;;;;;5044100;28;20464;-52
2023/05/06 09:36:34;;;;;;;10.90;8.40;;;8.50;99.90;;;;;;5060684;22;20578;-53
2023/05/06 09:39:01;;;;;;;8.20;7.20;;;8.60;99.90;;;;;;5064255;28;20952;-52
2023/05/06 09:41:29;;;;;;;13.13;8.57;;;8.60;99.90;;;;;;5066765;28;20505;-51
2023/05/06 09:43:57;;;;;;;7.40;6.70;;;8.60;99.90;;;;;;5068202;28;20555;-50
2023/05/06 09:46:26;;;;;;;9.10;7.07;;;8.60;99.90;;;;;;5059251;28;20509;-51
2023/05/06 09:48:54;;;;;;;15.30;7.80;;;8.70;99.90;;;;;;5046176;28;21029;-52
2023/05/06 09:51:21;;;;;;;8.07;6.30;;;8.70;99.90;;;;;;5051777;28;20555;-51
2023/05/06 09:53:48;;;;;;;8.03;7.07;;;8.70;99.90;;;;;;5049476;28;20548;-51
2023/05/06 09:56:16;;;;;;;6.87;6.00;;;8.60;99.90;;;;;;5051299;28;21066;-51
2023/05/06 09:58:45;;;;;;;6.93;6.30;;;8.70;99.90;;;;;;5048291;28;20576;-51
2023/05/06 10:01:12;;;;;;;8.57;6.50;;;8.70;99.90;;;;;;5050996;28;20559;-52
2023/05/06 10:03:40;;;;;;;6.90;6.30;;;8.70;99.90;;;;;;5046776;28;20472;-52
2023/05/06 10:06:10;;;;;;;7.27;6.00;;;8.70;99.90;;;;;;5037445;28;20484;-51
2023/05/06 10:08:37;;;;;;;7.40;6.67;;;8.80;99.90;;;;;;5048456;28;20968;-53
2023/05/06 10:11:06;;;;;;;7.97;5.60;;;8.80;99.90;;;;;;5047607;28;20555;-53
2023/05/06 10:13:35;;;;;;;6.10;5.60;;;8.70;99.90;;;;;;5050603;28;20573;-51
2023/05/06 10:16:02;;;;;;;7.47;6.80;;;8.70;99.90;;;;;;5045550;28;20481;-52
2023/05/06 10:18:30;;;;;;;5.93;5.33;;;8.80;99.90;;;;;;5050253;28;20519;-53
2023/05/06 10:20:59;;;;;;;5.77;5.27;;;8.70;99.90;;;;;;5050325;28;20591;-52
2023/05/06 10:23:30;;;;;;;5.80;5.30;;;8.80;99.90;;;;;;5050474;28;20558;-52
2023/05/06 10:26:02;;;;;;;6.10;5.60;;;8.80;99.90;;;;;;5050016;28;20560;-52
2023/05/06 10:28:30;;;;;;;6.60;5.57;;;8.80;99.90;;;;;;5049560;28;20509;-52
2023/05/06 10:30:58;;;;;;;9.63;5.77;;;8.70;99.90;;;;;;5054262;28;20557;-52
2023/05/06 10:33:26;;;;;;;5.30;4.80;;;8.70;99.90;;;;;;5058920;28;20888;-52
2023/05/06 10:36:01;;;;;;;5.20;4.70;;;8.80;99.90;;;;;;5044911;28;20540;-52
2023/05/06 10:38:35;;;;;;;6.60;6.03;;;8.70;99.90;;;;;;5042450;28;20862;-52
2023/05/06 10:41:02;;;;;;;5.00;4.53;;;8.80;99.90;;;;;;5039664;28;20464;-52
2023/05/06 10:43:30;;;;;;;5.50;5.00;;;8.80;99.90;;;;;;5045101;28;20488;-51
2023/05/06 10:46:03;;;;;;;4.57;4.27;;;8.80;99.90;;;;;;5044787;28;20487;-53
2023/05/06 10:48:31;;;;;;;6.87;4.30;;;8.80;99.90;;;;;;5045071;28;20484;-52
2023/05/06 10:51:23;;;;;;;4.63;4.30;;;8.90;99.90;;;;;;5049782;28;20648;-52
2023/05/06 10:53:57;;;;;;;3.90;3.70;;;8.80;99.90;;;;;;5046472;28;20958;-54
2023/05/06 10:56:24;;;;;;;4.20;3.93;;;8.90;99.90;;;;;;5049647;28;20552;-55
2023/05/06 10:58:51;;;;;;;3.70;3.50;;;9.00;99.90;;;;;;5048031;28;20569;-54
2023/05/06 11:01:21;;;;;;;5.27;3.50;;;8.80;99.90;;;;;;5044703;28;20492;-54
2023/05/06 11:03:50;;;;;;;4.07;3.80;;;8.90;99.90;;;;;;5046441;28;21204;-55
2023/05/06 11:06:35;;;;;;;7.53;4.70;;;8.90;99.90;;;;;;5040207;28;20542;-54
2023/05/06 11:09:04;;;;;;;10.93;4.60;;;8.80;99.90;;;;;;5048801;28;20548;-51
2023/05/06 11:11:57;;;;;;;4.63;4.10;;;8.80;99.90;;;;;;5051223;28;20538;-55
2023/05/06 11:14:29;;;;;;;4.50;4.10;;;8.80;99.90;;;;;;5046247;28;21836;-53
2023/05/06 11:16:58;;;;;;;7.93;5.00;;;8.70;99.90;;;;;;5046962;28;20568;-51
2023/05/06 11:19:26;;;;;;;5.97;4.17;;;8.80;99.90;;;;;;5055551;28;20528;-53
2023/05/06 11:21:54;;;;;;;4.20;3.90;;;8.70;99.90;;;;;;5046995;28;20465;-52
2023/05/06 11:24:25;;;;;;;4.90;4.30;;;8.70;99.90;;;;;;5046400;28;20553;-52
2023/05/06 11:26:53;;;;;;;8.50;4.77;;;8.70;99.90;;;;;;5047351;28;20489;-53
2023/05/06 11:29:19;;;;;;;6.37;4.70;;;8.40;99.90;;;;;;5047785;28;21004;-51
2023/05/06 11:31:48;;;;;;;5.97;5.07;;;8.60;99.90;;;;;;5050782;28;20979;-55
2023/05/06 11:34:26;;;;;;;5.17;4.67;;;8.70;99.90;;;;;;5050840;28;20457;-51
2023/05/06 11:37:00;;;;;;;5.93;4.57;;;8.80;99.90;;;;;;5048349;28;20563;-51
2023/05/06 11:39:29;;;;;;;5.20;4.33;;;8.80;99.90;;;;;;5049767;28;20988;-50
2023/05/06 11:41:57;;;;;;;5.00;4.13;;;8.80;99.90;;;;;;5049827;28;20479;-50
2023/05/06 11:44:26;;;;;;;5.70;4.13;;;8.80;99.90;;;;;;5045410;28;20469;-51
2023/05/06 11:46:55;;;;;;;4.87;4.47;;;8.70;99.90;;;;;;5049259;28;20568;-50
2023/05/06 11:49:24;;;;;;;4.17;3.77;;;8.70;99.90;;;;;;5043979;28;20507;-50
2023/05/06 11:51:50;;;;;;;6.33;4.40;;;8.80;99.90;;;;;;5049777;28;20949;-50
2023/05/06 11:54:19;;;;;;;4.83;4.43;;;8.90;99.90;;;;;;5049467;28;20531;-52
2023/05/06 11:56:48;;;;;;;5.33;3.63;;;8.80;99.90;;;;;;5049636;28;20481;-50
2023/05/06 11:59:15;;;;;;;5.00;4.10;;;8.80;99.90;;;;;;5047354;28;21028;-50
2023/05/06 12:01:43;;;;;;;4.60;3.87;;;8.90;99.90;;;;;;5046072;28;20524;-51
2023/05/06 12:04:10;;;;;;;4.77;4.17;;;8.90;99.90;;;;;;5049563;28;20450;-50
2023/05/06 12:06:39;;;;;;;4.17;3.60;;;8.80;99.90;;;;;;5049938;28;20552;-50
2023/05/06 12:09:07;;;;;;;4.27;3.93;;;8.80;99.90;;;;;;5050495;28;20468;-51
2023/05/06 12:11:35;;;;;;;3.57;3.20;;;8.90;99.90;;;;;;5050065;28;21011;-51
2023/05/06 12:14:04;;;;;;;3.53;3.33;;;8.80;99.90;;;;;;5050330;28;20531;-51
2023/05/06 12:16:31;;;;;;;6.43;4.33;;;8.70;99.90;;;;;;5047221;28;20518;-50
2023/05/06 12:18:57;;;;;;;3.47;3.13;;;8.60;99.90;;;;;;5040912;28;20519;-50
2023/05/06 12:21:25;;;;;;;7.03;3.57;;;8.70;99.90;;;;;;5049458;28;20476;-51
2023/05/06 12:23:54;;;;;;;5.70;3.80;;;8.70;99.90;;;;;;5049825;28;20504;-51
2023/05/06 12:26:21;;;;;;;3.80;3.50;;;8.70;99.90;;;;;;5050924;28;20476;-50
2023/05/06 12:29:04;;;;;;;11.37;3.93;;;8.80;99.90;;;;;;5050759;28;20456;-50
2023/05/06 12:31:31;;;;;;;4.23;3.90;;;8.70;99.90;;;;;;5051228;28;20802;-50
2023/05/06 12:33:57;;;;;;;7.17;3.67;;;8.70;99.90;;;;;;5050242;28;20551;-50
2023/05/06 12:36:24;;;;;;;3.67;3.40;;;8.60;99.90;;;;;;5046806;28;20519;-50
2023/05/06 12:38:51;;;;;;;5.90;3.50;;;8.70;99.90;;;;;;5045067;28;20580;-53
2023/05/06 12:41:20;;;;;;;3.80;3.50;;;8.70;99.90;;;;;;5049693;28;20445;-51
2023/05/06 12:43:47;;;;;;;6.00;3.60;;;8.70;99.90;;;;;;5051061;28;20464;-53
2023/05/06 12:46:16;;;;;;;4.13;3.73;;;8.80;99.90;;;;;;5049765;28;20519;-51
2023/05/06 12:48:56;;;;;;;3.97;3.67;;;8.80;99.90;;;;;;5050171;28;20548;-55
2023/05/06 12:51:23;;;;;;;6.00;3.90;;;8.70;99.90;;;;;;5051554;28;20451;-54
2023/05/06 12:53:50;;;;;;;8.53;3.80;;;8.70;99.90;;;;;;5046676;28;20468;-54
2023/05/06 12:56:19;;;;;;;4.33;3.93;;;8.70;99.90;;;;;;5049539;28;20827;-56
2023/05/06 12:58:56;;;;;;;5.90;4.10;;;8.60;99.90;;;;;;5048565;28;20535;-56